Pagina principale
METAR-TAF:

METAR-TAF

Aeroporti :

Malé, Maldive

Aeroporto Internazionale di Malé-Ibrahim Nasir

latitudine: 04-12N, longitudine: 073-32E, altezza: 2 m

Osservazione

Il bollettino è stato emesso 1 ora e 16 minuti fa, alle 00:00 UTC
Vento 9 kt da est/nord-est
Temperature 27°C
Umidità 84%
Pressione 1009 hPa
Visibilità 10 km o più
Poco nuvoloso ad un'altezza di 1800 ft

METAR: VRMM 250000Z 06009KT 9999 FEW018 27/24 Q1009 NOSIG

Ora: 06:16 (01:16 UTC)

Previsione

Il bollettino è stato emesso 2 ore e 16 minuti fa, alle 23:00 UTC
Previsione valida dal 25 alle 00 UTC al 26 alle 06 UTC
Vento 12 kt da est/nord-est
Visibilità 10 km o più
Poco nuvoloso ad un'altezza di 1800 ft

TAF: VRMM 242300Z 2500/2606 07012KT 9999 FEW018

Osservazioni e previsioni meteorologiche di più di 4000 aeroporti (messaggi METAR e TAF).

Le stazioni disponibili sono rappresentate dai dischi gialli e rossi sulla carta.

Puntare il mouse per vedere il nome della stazione.

Clicca sopra per visualizzare le osservazioni e previsioni meteorologiche.

Per cambiare la mappa : fare clic sui pulsanti verdi con una croce nera per ingrandire, il pulsante verde con un trattino per diminuire, o sulla freccia verde per le mappe adiacenti.


METAR-TAF: